sensor_id;sensor_type;location;lat;lon;timestamp;P1;durP1;ratioP1;P2;durP2;ratioP2
76786;SDS011;65739;51.482;5.702;2023-11-21T00:00:12;30.75;;;14.27;;
76786;SDS011;65739;51.482;5.702;2023-11-21T00:02:43;35.13;;;15.65;;
76786;SDS011;65739;51.482;5.702;2023-11-21T00:05:11;33.78;;;15.30;;
76786;SDS011;65739;51.482;5.702;2023-11-21T00:07:39;36.83;;;15.00;;
76786;SDS011;65739;51.482;5.702;2023-11-21T00:10:06;32.25;;;15.35;;
76786;SDS011;65739;51.482;5.702;2023-11-21T00:12:40;40.05;;;15.90;;
76786;SDS011;65739;51.482;5.702;2023-11-21T00:15:09;37.97;;;15.88;;
76786;SDS011;65739;51.482;5.702;2023-11-21T00:17:38;38.30;;;15.93;;
76786;SDS011;65739;51.482;5.702;2023-11-21T00:20:05;36.85;;;16.55;;
76786;SDS011;65739;51.482;5.702;2023-11-21T00:22:35;44.20;;;16.85;;
76786;SDS011;65739;51.482;5.702;2023-11-21T00:25:01;34.53;;;15.65;;
76786;SDS011;65739;51.482;5.702;2023-11-21T00:27:34;35.47;;;16.83;;
76786;SDS011;65739;51.482;5.702;2023-11-21T00:30:00;38.78;;;15.63;;
76786;SDS011;65739;51.482;5.702;2023-11-21T00:32:26;33.80;;;15.88;;
76786;SDS011;65739;51.482;5.702;2023-11-21T00:34:52;37.05;;;15.30;;
76786;SDS011;65739;51.482;5.702;2023-11-21T00:37:19;37.75;;;14.80;;
76786;SDS011;65739;51.482;5.702;2023-11-21T00:39:45;37.00;;;15.18;;
76786;SDS011;65739;51.482;5.702;2023-11-21T00:42:11;31.38;;;14.48;;
76786;SDS011;65739;51.482;5.702;2023-11-21T00:44:40;34.80;;;15.55;;
76786;SDS011;65739;51.482;5.702;2023-11-21T00:47:15;38.65;;;15.65;;
76786;SDS011;65739;51.482;5.702;2023-11-21T00:49:41;27.00;;;14.60;;
76786;SDS011;65739;51.482;5.702;2023-11-21T00:52:06;35.20;;;14.85;;
76786;SDS011;65739;51.482;5.702;2023-11-21T00:54:32;37.63;;;14.55;;
76786;SDS011;65739;51.482;5.702;2023-11-21T00:57:01;35.35;;;15.05;;
76786;SDS011;65739;51.482;5.702;2023-11-21T00:59:26;32.40;;;14.95;;
76786;SDS011;65739;51.482;5.702;2023-11-21T01:01:52;28.98;;;14.60;;
76786;SDS011;65739;51.482;5.702;2023-11-21T01:04:19;34.30;;;14.63;;
76786;SDS011;65739;51.482;5.702;2023-11-21T01:06:45;32.88;;;14.25;;
76786;SDS011;65739;51.482;5.702;2023-11-21T01:09:10;33.40;;;14.65;;
76786;SDS011;65739;51.482;5.702;2023-11-21T01:12:04;32.35;;;14.68;;
76786;SDS011;65739;51.482;5.702;2023-11-21T01:14:36;28.67;;;14.77;;
76786;SDS011;65739;51.482;5.702;2023-11-21T01:17:05;34.60;;;15.13;;
76786;SDS011;65739;51.482;5.702;2023-11-21T01:19:30;32.85;;;15.52;;
76786;SDS011;65739;51.482;5.702;2023-11-21T01:21:56;37.47;;;15.23;;
76786;SDS011;65739;51.482;5.702;2023-11-21T01:24:23;36.63;;;15.50;;
76786;SDS011;65739;51.482;5.702;2023-11-21T01:26:48;35.47;;;15.48;;
76786;SDS011;65739;51.482;5.702;2023-11-21T01:29:14;39.22;;;14.85;;
76786;SDS011;65739;51.482;5.702;2023-11-21T01:31:40;29.17;;;13.70;;
76786;SDS011;65739;51.482;5.702;2023-11-21T01:34:06;36.33;;;15.93;;
76786;SDS011;65739;51.482;5.702;2023-11-21T01:36:32;33.17;;;15.90;;
76786;SDS011;65739;51.482;5.702;2023-11-21T01:38:58;37.83;;;16.17;;
76786;SDS011;65739;51.482;5.702;2023-11-21T01:41:25;38.70;;;15.88;;
76786;SDS011;65739;51.482;5.702;2023-11-21T01:43:52;31.70;;;15.43;;
76786;SDS011;65739;51.482;5.702;2023-11-21T01:46:19;41.83;;;16.55;;
76786;SDS011;65739;51.482;5.702;2023-11-21T01:48:45;32.70;;;15.38;;
76786;SDS011;65739;51.482;5.702;2023-11-21T01:53:43;40.35;;;15.43;;
76786;SDS011;65739;51.482;5.702;2023-11-21T01:56:11;33.78;;;15.43;;
76786;SDS011;65739;51.482;5.702;2023-11-21T01:58:38;36.22;;;15.32;;
76786;SDS011;65739;51.482;5.702;2023-11-21T02:01:04;38.38;;;16.52;;
76786;SDS011;65739;51.482;5.702;2023-11-21T02:03:30;37.30;;;16.25;;
76786;SDS011;65739;51.482;5.702;2023-11-21T02:05:56;33.50;;;16.30;;
76786;SDS011;65739;51.482;5.702;2023-11-21T02:08:24;43.03;;;16.83;;
76786;SDS011;65739;51.482;5.702;2023-11-21T02:10:56;42.20;;;16.92;;
76786;SDS011;65739;51.482;5.702;2023-11-21T02:13:25;37.25;;;18.17;;
76786;SDS011;65739;51.482;5.702;2023-11-21T02:15:53;41.60;;;17.83;;
76786;SDS011;65739;51.482;5.702;2023-11-21T02:18:36;43.92;;;17.08;;
76786;SDS011;65739;51.482;5.702;2023-11-21T02:21:13;40.15;;;17.60;;
76786;SDS011;65739;51.482;5.702;2023-11-21T02:23:42;48.00;;;18.60;;
76786;SDS011;65739;51.482;5.702;2023-11-21T02:26:14;44.95;;;18.45;;
76786;SDS011;65739;51.482;5.702;2023-11-21T02:28:42;49.78;;;19.63;;
76786;SDS011;65739;51.482;5.702;2023-11-21T02:31:11;45.45;;;19.05;;
76786;SDS011;65739;51.482;5.702;2023-11-21T02:33:37;55.40;;;21.27;;
76786;SDS011;65739;51.482;5.702;2023-11-21T02:36:03;46.00;;;19.60;;
76786;SDS011;65739;51.482;5.702;2023-11-21T02:38:32;51.97;;;20.65;;
76786;SDS011;65739;51.482;5.702;2023-11-21T02:40:57;63.65;;;21.38;;
76786;SDS011;65739;51.482;5.702;2023-11-21T02:43:26;70.32;;;22.45;;
76786;SDS011;65739;51.482;5.702;2023-11-21T02:45:51;77.40;;;22.60;;
76786;SDS011;65739;51.482;5.702;2023-11-21T02:48:17;66.05;;;20.98;;
76786;SDS011;65739;51.482;5.702;2023-11-21T02:50:50;111.80;;;22.35;;
76786;SDS011;65739;51.482;5.702;2023-11-21T02:53:18;83.05;;;20.95;;
76786;SDS011;65739;51.482;5.702;2023-11-21T02:55:44;95.78;;;22.63;;
76786;SDS011;65739;51.482;5.702;2023-11-21T02:58:09;72.07;;;21.27;;
76786;SDS011;65739;51.482;5.702;2023-11-21T03:00:35;87.47;;;21.52;;
76786;SDS011;65739;51.482;5.702;2023-11-21T03:03:01;80.60;;;22.15;;
76786;SDS011;65739;51.482;5.702;2023-11-21T03:05:26;93.28;;;23.08;;
76786;SDS011;65739;51.482;5.702;2023-11-21T03:07:53;114.47;;;23.67;;
76786;SDS011;65739;51.482;5.702;2023-11-21T03:10:19;83.82;;;22.02;;
76786;SDS011;65739;51.482;5.702;2023-11-21T03:12:45;82.47;;;22.27;;
76786;SDS011;65739;51.482;5.702;2023-11-21T03:15:10;87.53;;;23.33;;
76786;SDS011;65739;51.482;5.702;2023-11-21T03:17:36;71.18;;;21.52;;
76786;SDS011;65739;51.482;5.702;2023-11-21T03:20:02;73.00;;;21.75;;
76786;SDS011;65739;51.482;5.702;2023-11-21T03:22:29;99.18;;;20.90;;
76786;SDS011;65739;51.482;5.702;2023-11-21T03:24:54;94.82;;;22.42;;
76786;SDS011;65739;51.482;5.702;2023-11-21T03:27:20;121.80;;;24.30;;
76786;SDS011;65739;51.482;5.702;2023-11-21T03:29:46;79.38;;;21.35;;
76786;SDS011;65739;51.482;5.702;2023-11-21T03:32:12;54.25;;;21.80;;
76786;SDS011;65739;51.482;5.702;2023-11-21T03:34:52;84.50;;;21.10;;
76786;SDS011;65739;51.482;5.702;2023-11-21T03:37:27;89.90;;;21.55;;
76786;SDS011;65739;51.482;5.702;2023-11-21T03:39:54;89.55;;;22.95;;
76786;SDS011;65739;51.482;5.702;2023-11-21T03:42:20;110.40;;;23.63;;
76786;SDS011;65739;51.482;5.702;2023-11-21T03:44:45;81.95;;;22.50;;
76786;SDS011;65739;51.482;5.702;2023-11-21T03:47:11;69.25;;;21.52;;
76786;SDS011;65739;51.482;5.702;2023-11-21T03:49:37;113.43;;;23.38;;
76786;SDS011;65739;51.482;5.702;2023-11-21T03:52:03;90.15;;;22.08;;
76786;SDS011;65739;51.482;5.702;2023-11-21T03:54:28;145.43;;;23.50;;
76786;SDS011;65739;51.482;5.702;2023-11-21T03:56:54;88.40;;;22.25;;
76786;SDS011;65739;51.482;5.702;2023-11-21T03:59:20;74.07;;;21.08;;
76786;SDS011;65739;51.482;5.702;2023-11-21T04:01:46;118.65;;;22.60;;
76786;SDS011;65739;51.482;5.702;2023-11-21T04:04:11;118.35;;;23.15;;
76786;SDS011;65739;51.482;5.702;2023-11-21T04:06:37;86.38;;;21.42;;
76786;SDS011;65739;51.482;5.702;2023-11-21T04:09:03;109.70;;;22.23;;
76786;SDS011;65739;51.482;5.702;2023-11-21T04:11:32;94.43;;;22.65;;
76786;SDS011;65739;51.482;5.702;2023-11-21T04:13:57;89.68;;;22.70;;
76786;SDS011;65739;51.482;5.702;2023-11-21T04:16:23;72.70;;;21.63;;
76786;SDS011;65739;51.482;5.702;2023-11-21T04:18:49;116.38;;;23.17;;
76786;SDS011;65739;51.482;5.702;2023-11-21T04:21:15;88.47;;;23.48;;
76786;SDS011;65739;51.482;5.702;2023-11-21T04:23:40;67.00;;;22.55;;
76786;SDS011;65739;51.482;5.702;2023-11-21T04:26:07;65.47;;;22.73;;
76786;SDS011;65739;51.482;5.702;2023-11-21T04:28:32;107.80;;;23.02;;
76786;SDS011;65739;51.482;5.702;2023-11-21T04:30:58;109.75;;;23.65;;
76786;SDS011;65739;51.482;5.702;2023-11-21T04:33:24;89.30;;;23.42;;
76786;SDS011;65739;51.482;5.702;2023-11-21T04:35:50;109.60;;;23.27;;
76786;SDS011;65739;51.482;5.702;2023-11-21T04:38:16;92.30;;;23.45;;
76786;SDS011;65739;51.482;5.702;2023-11-21T04:40:42;110.80;;;22.63;;
76786;SDS011;65739;51.482;5.702;2023-11-21T04:43:08;104.45;;;22.10;;
76786;SDS011;65739;51.482;5.702;2023-11-21T04:45:33;87.47;;;23.98;;
76786;SDS011;65739;51.482;5.702;2023-11-21T04:47:59;105.35;;;23.95;;
76786;SDS011;65739;51.482;5.702;2023-11-21T04:50:25;87.22;;;23.23;;
76786;SDS011;65739;51.482;5.702;2023-11-21T04:52:57;83.13;;;23.65;;
76786;SDS011;65739;51.482;5.702;2023-11-21T04:55:22;96.07;;;22.05;;
76786;SDS011;65739;51.482;5.702;2023-11-21T04:57:48;102.30;;;22.17;;
76786;SDS011;65739;51.482;5.702;2023-11-21T05:00:16;108.57;;;22.05;;
76786;SDS011;65739;51.482;5.702;2023-11-21T05:02:46;91.05;;;23.50;;
76786;SDS011;65739;51.482;5.702;2023-11-21T05:05:21;81.90;;;22.70;;
76786;SDS011;65739;51.482;5.702;2023-11-21T05:08:07;70.80;;;22.13;;
76786;SDS011;65739;51.482;5.702;2023-11-21T05:10:33;80.78;;;22.55;;
76786;SDS011;65739;51.482;5.702;2023-11-21T05:12:59;98.18;;;24.00;;
76786;SDS011;65739;51.482;5.702;2023-11-21T05:15:25;106.90;;;25.65;;
76786;SDS011;65739;51.482;5.702;2023-11-21T05:18:01;92.32;;;24.23;;
76786;SDS011;65739;51.482;5.702;2023-11-21T05:20:33;66.85;;;21.52;;
76786;SDS011;65739;51.482;5.702;2023-11-21T05:22:59;99.80;;;23.27;;
76786;SDS011;65739;51.482;5.702;2023-11-21T05:25:27;71.95;;;22.73;;
76786;SDS011;65739;51.482;5.702;2023-11-21T05:27:53;83.03;;;22.38;;
76786;SDS011;65739;51.482;5.702;2023-11-21T05:30:19;67.43;;;22.85;;
76786;SDS011;65739;51.482;5.702;2023-11-21T05:32:46;77.05;;;23.52;;
76786;SDS011;65739;51.482;5.702;2023-11-21T05:35:12;83.60;;;22.13;;
76786;SDS011;65739;51.482;5.702;2023-11-21T05:37:40;70.25;;;21.63;;
76786;SDS011;65739;51.482;5.702;2023-11-21T05:40:06;62.85;;;21.98;;
76786;SDS011;65739;51.482;5.702;2023-11-21T05:42:33;61.72;;;21.33;;
76786;SDS011;65739;51.482;5.702;2023-11-21T05:44:59;74.00;;;22.33;;
76786;SDS011;65739;51.482;5.702;2023-11-21T05:47:42;46.50;;;20.23;;
76786;SDS011;65739;51.482;5.702;2023-11-21T05:50:09;70.55;;;22.08;;
76786;SDS011;65739;51.482;5.702;2023-11-21T05:52:40;53.13;;;20.90;;
76786;SDS011;65739;51.482;5.702;2023-11-21T05:55:08;55.97;;;21.48;;
76786;SDS011;65739;51.482;5.702;2023-11-21T05:57:35;55.33;;;21.77;;
76786;SDS011;65739;51.482;5.702;2023-11-21T06:00:05;59.78;;;21.63;;
76786;SDS011;65739;51.482;5.702;2023-11-21T06:02:45;46.63;;;21.60;;
76786;SDS011;65739;51.482;5.702;2023-11-21T06:05:13;57.20;;;21.52;;
76786;SDS011;65739;51.482;5.702;2023-11-21T06:07:39;53.92;;;20.70;;
76786;SDS011;65739;51.482;5.702;2023-11-21T06:10:05;51.90;;;21.33;;
76786;SDS011;65739;51.482;5.702;2023-11-21T06:12:34;54.25;;;21.67;;
76786;SDS011;65739;51.482;5.702;2023-11-21T06:15:01;52.58;;;21.77;;
76786;SDS011;65739;51.482;5.702;2023-11-21T06:17:30;48.95;;;21.88;;
76786;SDS011;65739;51.482;5.702;2023-11-21T06:20:01;48.70;;;20.23;;
76786;SDS011;65739;51.482;5.702;2023-11-21T06:22:34;48.13;;;20.27;;
76786;SDS011;65739;51.482;5.702;2023-11-21T06:25:03;47.85;;;21.27;;
76786;SDS011;65739;51.482;5.702;2023-11-21T06:27:31;44.83;;;20.40;;
76786;SDS011;65739;51.482;5.702;2023-11-21T06:29:58;50.13;;;21.63;;
76786;SDS011;65739;51.482;5.702;2023-11-21T06:32:23;49.50;;;20.63;;
76786;SDS011;65739;51.482;5.702;2023-11-21T06:34:49;46.97;;;21.88;;
76786;SDS011;65739;51.482;5.702;2023-11-21T06:37:18;47.50;;;21.77;;
76786;SDS011;65739;51.482;5.702;2023-11-21T06:39:46;47.80;;;20.63;;
76786;SDS011;65739;51.482;5.702;2023-11-21T06:42:11;51.45;;;20.30;;
76786;SDS011;65739;51.482;5.702;2023-11-21T06:44:37;49.03;;;20.92;;
76786;SDS011;65739;51.482;5.702;2023-11-21T06:47:04;54.05;;;21.80;;
76786;SDS011;65739;51.482;5.702;2023-11-21T06:49:30;49.15;;;21.13;;
76786;SDS011;65739;51.482;5.702;2023-11-21T06:51:56;54.22;;;21.55;;
76786;SDS011;65739;51.482;5.702;2023-11-21T06:54:22;53.15;;;21.35;;
76786;SDS011;65739;51.482;5.702;2023-11-21T06:56:57;49.03;;;20.42;;
76786;SDS011;65739;51.482;5.702;2023-11-21T06:59:23;50.63;;;21.33;;
76786;SDS011;65739;51.482;5.702;2023-11-21T07:01:51;52.50;;;21.60;;
76786;SDS011;65739;51.482;5.702;2023-11-21T07:04:17;52.63;;;20.50;;
76786;SDS011;65739;51.482;5.702;2023-11-21T07:06:43;54.90;;;21.55;;
76786;SDS011;65739;51.482;5.702;2023-11-21T07:09:09;53.78;;;21.67;;
76786;SDS011;65739;51.482;5.702;2023-11-21T07:11:37;61.20;;;22.45;;
76786;SDS011;65739;51.482;5.702;2023-11-21T07:14:06;61.58;;;20.85;;
76786;SDS011;65739;51.482;5.702;2023-11-21T07:16:36;58.65;;;21.25;;
76786;SDS011;65739;51.482;5.702;2023-11-21T07:19:05;65.88;;;23.30;;
76786;SDS011;65739;51.482;5.702;2023-11-21T07:21:34;53.75;;;22.25;;
76786;SDS011;65739;51.482;5.702;2023-11-21T07:24:09;61.42;;;23.55;;
76786;SDS011;65739;51.482;5.702;2023-11-21T07:26:36;64.65;;;22.75;;
76786;SDS011;65739;51.482;5.702;2023-11-21T07:29:10;59.85;;;22.30;;
76786;SDS011;65739;51.482;5.702;2023-11-21T07:31:37;64.00;;;24.08;;
76786;SDS011;65739;51.482;5.702;2023-11-21T07:34:03;60.05;;;22.38;;
76786;SDS011;65739;51.482;5.702;2023-11-21T07:36:29;61.15;;;21.60;;
76786;SDS011;65739;51.482;5.702;2023-11-21T07:38:55;67.28;;;22.38;;
76786;SDS011;65739;51.482;5.702;2023-11-21T07:41:20;65.85;;;23.38;;
76786;SDS011;65739;51.482;5.702;2023-11-21T07:43:47;65.60;;;22.75;;
76786;SDS011;65739;51.482;5.702;2023-11-21T07:46:13;55.90;;;23.02;;
76786;SDS011;65739;51.482;5.702;2023-11-21T07:48:39;72.47;;;23.23;;
76786;SDS011;65739;51.482;5.702;2023-11-21T07:51:07;64.65;;;22.17;;
76786;SDS011;65739;51.482;5.702;2023-11-21T07:53:33;65.70;;;22.85;;
76786;SDS011;65739;51.482;5.702;2023-11-21T07:56:11;68.47;;;24.88;;
76786;SDS011;65739;51.482;5.702;2023-11-21T07:58:40;66.20;;;24.27;;
76786;SDS011;65739;51.482;5.702;2023-11-21T08:01:06;72.50;;;24.30;;
76786;SDS011;65739;51.482;5.702;2023-11-21T08:03:32;70.63;;;24.38;;
76786;SDS011;65739;51.482;5.702;2023-11-21T08:05:58;64.93;;;23.50;;
76786;SDS011;65739;51.482;5.702;2023-11-21T08:08:24;68.68;;;24.42;;
76786;SDS011;65739;51.482;5.702;2023-11-21T08:10:51;64.72;;;23.50;;
76786;SDS011;65739;51.482;5.702;2023-11-21T08:13:26;64.95;;;23.27;;
76786;SDS011;65739;51.482;5.702;2023-11-21T08:15:56;72.45;;;23.90;;
76786;SDS011;65739;51.482;5.702;2023-11-21T08:18:28;62.80;;;24.85;;
76786;SDS011;65739;51.482;5.702;2023-11-21T08:20:57;67.88;;;24.27;;
76786;SDS011;65739;51.482;5.702;2023-11-21T08:23:23;77.55;;;24.38;;
76786;SDS011;65739;51.482;5.702;2023-11-21T08:25:52;67.25;;;24.73;;
76786;SDS011;65739;51.482;5.702;2023-11-21T08:28:18;65.63;;;24.27;;
76786;SDS011;65739;51.482;5.702;2023-11-21T08:30:44;62.45;;;23.73;;
76786;SDS011;65739;51.482;5.702;2023-11-21T08:33:10;55.33;;;22.92;;
76786;SDS011;65739;51.482;5.702;2023-11-21T08:35:38;49.67;;;19.95;;
76786;SDS011;65739;51.482;5.702;2023-11-21T08:38:04;50.03;;;21.00;;
76786;SDS011;65739;51.482;5.702;2023-11-21T08:40:29;50.15;;;20.80;;
76786;SDS011;65739;51.482;5.702;2023-11-21T08:42:55;56.72;;;22.40;;
76786;SDS011;65739;51.482;5.702;2023-11-21T08:45:23;55.10;;;21.58;;
76786;SDS011;65739;51.482;5.702;2023-11-21T08:47:52;46.90;;;20.15;;
76786;SDS011;65739;51.482;5.702;2023-11-21T08:50:18;53.42;;;20.88;;
76786;SDS011;65739;51.482;5.702;2023-11-21T08:52:44;51.65;;;20.35;;
76786;SDS011;65739;51.482;5.702;2023-11-21T08:55:13;46.67;;;20.65;;
76786;SDS011;65739;51.482;5.702;2023-11-21T08:57:39;54.55;;;21.27;;
76786;SDS011;65739;51.482;5.702;2023-11-21T09:00:07;54.30;;;20.25;;
76786;SDS011;65739;51.482;5.702;2023-11-21T09:02:36;49.40;;;20.05;;
76786;SDS011;65739;51.482;5.702;2023-11-21T09:05:08;48.75;;;21.08;;
76786;SDS011;65739;51.482;5.702;2023-11-21T09:07:38;77.72;;;21.50;;
76786;SDS011;65739;51.482;5.702;2023-11-21T09:10:06;68.55;;;21.13;;
76786;SDS011;65739;51.482;5.702;2023-11-21T09:12:32;63.60;;;22.63;;
76786;SDS011;65739;51.482;5.702;2023-11-21T09:15:02;53.63;;;19.75;;
76786;SDS011;65739;51.482;5.702;2023-11-21T09:17:30;43.25;;;19.58;;
76786;SDS011;65739;51.482;5.702;2023-11-21T09:19:56;47.35;;;19.45;;
76786;SDS011;65739;51.482;5.702;2023-11-21T09:22:22;47.88;;;19.67;;
76786;SDS011;65739;51.482;5.702;2023-11-21T09:24:49;45.63;;;19.30;;
76786;SDS011;65739;51.482;5.702;2023-11-21T09:27:15;45.72;;;18.88;;
76786;SDS011;65739;51.482;5.702;2023-11-21T09:29:42;41.60;;;19.70;;
76786;SDS011;65739;51.482;5.702;2023-11-21T09:32:08;42.50;;;18.63;;
76786;SDS011;65739;51.482;5.702;2023-11-21T09:34:37;46.38;;;19.52;;
76786;SDS011;65739;51.482;5.702;2023-11-21T09:37:03;49.55;;;20.35;;
76786;SDS011;65739;51.482;5.702;2023-11-21T09:39:31;36.65;;;17.33;;
76786;SDS011;65739;51.482;5.702;2023-11-21T09:41:59;63.42;;;18.67;;
76786;SDS011;65739;51.482;5.702;2023-11-21T09:45:17;36.95;;;17.85;;
76786;SDS011;65739;51.482;5.702;2023-11-21T09:47:16;34.22;;;16.90;;
76786;SDS011;65739;51.482;5.702;2023-11-21T09:49:44;31.92;;;16.80;;
76786;SDS011;65739;51.482;5.702;2023-11-21T09:52:17;35.65;;;16.92;;
76786;SDS011;65739;51.482;5.702;2023-11-21T09:54:50;46.08;;;18.02;;
76786;SDS011;65739;51.482;5.702;2023-11-21T09:57:18;41.80;;;17.83;;
76786;SDS011;65739;51.482;5.702;2023-11-21T09:59:52;33.72;;;16.38;;
76786;SDS011;65739;51.482;5.702;2023-11-21T10:02:22;34.75;;;16.75;;
76786;SDS011;65739;51.482;5.702;2023-11-21T10:04:51;36.28;;;17.13;;
76786;SDS011;65739;51.482;5.702;2023-11-21T10:07:17;37.88;;;17.05;;
76786;SDS011;65739;51.482;5.702;2023-11-21T10:09:45;34.28;;;16.95;;
76786;SDS011;65739;51.482;5.702;2023-11-21T10:12:11;35.70;;;16.85;;
76786;SDS011;65739;51.482;5.702;2023-11-21T10:14:40;35.67;;;17.67;;
76786;SDS011;65739;51.482;5.702;2023-11-21T10:17:08;39.70;;;18.52;;
76786;SDS011;65739;51.482;5.702;2023-11-21T10:19:37;38.00;;;19.52;;
76786;SDS011;65739;51.482;5.702;2023-11-21T10:22:04;36.45;;;18.30;;
76786;SDS011;65739;51.482;5.702;2023-11-21T10:24:31;40.78;;;19.42;;
76786;SDS011;65739;51.482;5.702;2023-11-21T10:26:57;39.65;;;18.92;;
76786;SDS011;65739;51.482;5.702;2023-11-21T10:29:23;43.60;;;19.80;;
76786;SDS011;65739;51.482;5.702;2023-11-21T10:31:49;43.35;;;20.55;;
76786;SDS011;65739;51.482;5.702;2023-11-21T10:34:16;49.00;;;20.65;;
76786;SDS011;65739;51.482;5.702;2023-11-21T10:36:43;47.38;;;20.40;;
76786;SDS011;65739;51.482;5.702;2023-11-21T10:39:13;51.78;;;22.02;;
76786;SDS011;65739;51.482;5.702;2023-11-21T10:41:46;59.00;;;21.88;;
76786;SDS011;65739;51.482;5.702;2023-11-21T10:44:16;54.58;;;21.63;;
76786;SDS011;65739;51.482;5.702;2023-11-21T10:46:46;53.67;;;22.73;;
76786;SDS011;65739;51.482;5.702;2023-11-21T10:49:19;55.03;;;22.00;;
76786;SDS011;65739;51.482;5.702;2023-11-21T10:51:45;49.25;;;21.25;;
76786;SDS011;65739;51.482;5.702;2023-11-21T10:54:15;49.00;;;21.98;;
76786;SDS011;65739;51.482;5.702;2023-11-21T10:56:42;55.78;;;21.83;;
76786;SDS011;65739;51.482;5.702;2023-11-21T10:59:12;53.83;;;21.70;;
76786;SDS011;65739;51.482;5.702;2023-11-21T11:01:42;57.17;;;22.08;;
76786;SDS011;65739;51.482;5.702;2023-11-21T11:04:14;48.30;;;22.47;;
76786;SDS011;65739;51.482;5.702;2023-11-21T11:06:45;55.05;;;21.90;;
76786;SDS011;65739;51.482;5.702;2023-11-21T11:09:16;49.55;;;21.75;;
76786;SDS011;65739;51.482;5.702;2023-11-21T11:11:42;55.53;;;21.13;;
76786;SDS011;65739;51.482;5.702;2023-11-21T11:14:11;56.85;;;21.40;;
76786;SDS011;65739;51.482;5.702;2023-11-21T11:16:41;60.67;;;23.23;;
76786;SDS011;65739;51.482;5.702;2023-11-21T11:19:07;54.97;;;22.45;;
76786;SDS011;65739;51.482;5.702;2023-11-21T11:24:32;49.28;;;22.55;;
76786;SDS011;65739;51.482;5.702;2023-11-21T11:38:32;48.72;;;21.48;;
76786;SDS011;65739;51.482;5.702;2023-11-21T11:41:01;68.13;;;23.73;;
76786;SDS011;65739;51.482;5.702;2023-11-21T11:43:30;46.30;;;21.67;;
76786;SDS011;65739;51.482;5.702;2023-11-21T11:46:09;50.88;;;22.17;;
76786;SDS011;65739;51.482;5.702;2023-11-21T11:48:39;47.25;;;21.80;;
76786;SDS011;65739;51.482;5.702;2023-11-21T11:51:05;50.95;;;21.70;;
76786;SDS011;65739;51.482;5.702;2023-11-21T11:53:37;53.30;;;22.13;;
76786;SDS011;65739;51.482;5.702;2023-11-21T11:58:51;43.88;;;20.63;;
76786;SDS011;65739;51.482;5.702;2023-11-21T12:01:21;39.15;;;17.92;;
76786;SDS011;65739;51.482;5.702;2023-11-21T12:06:56;36.65;;;17.05;;
76786;SDS011;65739;51.482;5.702;2023-11-21T12:09:25;39.92;;;17.48;;
76786;SDS011;65739;51.482;5.702;2023-11-21T12:11:51;38.30;;;17.60;;
76786;SDS011;65739;51.482;5.702;2023-11-21T12:14:18;38.13;;;18.38;;
76786;SDS011;65739;51.482;5.702;2023-11-21T12:16:44;42.10;;;18.23;;
76786;SDS011;65739;51.482;5.702;2023-11-21T12:19:10;34.83;;;18.55;;
76786;SDS011;65739;51.482;5.702;2023-11-21T12:21:36;35.85;;;17.83;;
76786;SDS011;65739;51.482;5.702;2023-11-21T12:24:02;35.80;;;18.00;;
76786;SDS011;65739;51.482;5.702;2023-11-21T12:26:29;36.60;;;17.63;;
76786;SDS011;65739;51.482;5.702;2023-11-21T12:28:54;34.53;;;17.23;;
76786;SDS011;65739;51.482;5.702;2023-11-21T12:31:21;29.25;;;16.70;;
76786;SDS011;65739;51.482;5.702;2023-11-21T12:33:47;36.80;;;16.73;;
76786;SDS011;65739;51.482;5.702;2023-11-21T12:36:12;41.05;;;17.95;;
76786;SDS011;65739;51.482;5.702;2023-11-21T12:38:38;35.22;;;17.80;;
76786;SDS011;65739;51.482;5.702;2023-11-21T12:41:04;33.05;;;16.58;;
76786;SDS011;65739;51.482;5.702;2023-11-21T12:43:31;37.92;;;17.30;;
76786;SDS011;65739;51.482;5.702;2023-11-21T12:46:10;42.58;;;18.88;;
76786;SDS011;65739;51.482;5.702;2023-11-21T12:48:42;39.00;;;18.70;;
76786;SDS011;65739;51.482;5.702;2023-11-21T12:51:10;37.50;;;18.92;;
76786;SDS011;65739;51.482;5.702;2023-11-21T12:53:40;45.03;;;20.05;;
76786;SDS011;65739;51.482;5.702;2023-11-21T12:56:07;45.40;;;20.45;;
76786;SDS011;65739;51.482;5.702;2023-11-21T12:58:34;39.08;;;19.65;;
76786;SDS011;65739;51.482;5.702;2023-11-21T13:01:01;43.33;;;19.55;;
76786;SDS011;65739;51.482;5.702;2023-11-21T13:03:29;40.28;;;20.55;;
76786;SDS011;65739;51.482;5.702;2023-11-21T13:05:55;35.35;;;19.48;;
76786;SDS011;65739;51.482;5.702;2023-11-21T13:08:22;37.35;;;19.20;;
76786;SDS011;65739;51.482;5.702;2023-11-21T13:10:49;33.72;;;18.88;;
76786;SDS011;65739;51.482;5.702;2023-11-21T13:13:19;37.65;;;18.42;;
76786;SDS011;65739;51.482;5.702;2023-11-21T13:15:48;33.70;;;17.08;;
76786;SDS011;65739;51.482;5.702;2023-11-21T13:18:16;30.55;;;17.35;;
76786;SDS011;65739;51.482;5.702;2023-11-21T13:20:42;34.65;;;18.60;;
76786;SDS011;65739;51.482;5.702;2023-11-21T13:23:08;38.08;;;19.17;;
76786;SDS011;65739;51.482;5.702;2023-11-21T13:25:40;35.75;;;18.23;;
76786;SDS011;65739;51.482;5.702;2023-11-21T13:28:13;37.35;;;18.42;;
76786;SDS011;65739;51.482;5.702;2023-11-21T13:30:43;33.87;;;17.27;;
76786;SDS011;65739;51.482;5.702;2023-11-21T13:33:10;39.05;;;18.13;;
76786;SDS011;65739;51.482;5.702;2023-11-21T13:35:42;40.92;;;19.85;;
76786;SDS011;65739;51.482;5.702;2023-11-21T13:38:14;39.72;;;19.05;;
76786;SDS011;65739;51.482;5.702;2023-11-21T13:40:42;38.60;;;18.80;;
76786;SDS011;65739;51.482;5.702;2023-11-21T13:43:14;38.63;;;18.50;;
76786;SDS011;65739;51.482;5.702;2023-11-21T13:45:46;41.47;;;19.80;;
76786;SDS011;65739;51.482;5.702;2023-11-21T13:48:16;43.40;;;19.95;;
76786;SDS011;65739;51.482;5.702;2023-11-21T13:50:50;48.75;;;21.17;;
76786;SDS011;65739;51.482;5.702;2023-11-21T13:53:38;50.13;;;19.90;;
76786;SDS011;65739;51.482;5.702;2023-11-21T13:56:04;47.10;;;20.73;;
76786;SDS011;65739;51.482;5.702;2023-11-21T13:58:30;49.78;;;20.95;;
76786;SDS011;65739;51.482;5.702;2023-11-21T14:01:14;55.17;;;22.88;;
76786;SDS011;65739;51.482;5.702;2023-11-21T14:03:54;55.92;;;22.55;;
76786;SDS011;65739;51.482;5.702;2023-11-21T14:06:27;48.80;;;21.33;;
76786;SDS011;65739;51.482;5.702;2023-11-21T14:08:59;50.25;;;20.67;;
76786;SDS011;65739;51.482;5.702;2023-11-21T14:11:30;52.85;;;21.75;;
76786;SDS011;65739;51.482;5.702;2023-11-21T14:13:55;47.25;;;20.48;;
76786;SDS011;65739;51.482;5.702;2023-11-21T14:16:21;43.47;;;19.92;;
76786;SDS011;65739;51.482;5.702;2023-11-21T14:18:47;42.38;;;20.65;;
76786;SDS011;65739;51.482;5.702;2023-11-21T14:21:26;39.65;;;19.08;;
76786;SDS011;65739;51.482;5.702;2023-11-21T14:23:52;44.70;;;19.52;;
76786;SDS011;65739;51.482;5.702;2023-11-21T14:26:19;40.47;;;18.67;;
76786;SDS011;65739;51.482;5.702;2023-11-21T14:28:45;40.92;;;18.30;;
76786;SDS011;65739;51.482;5.702;2023-11-21T14:31:13;39.47;;;17.90;;
76786;SDS011;65739;51.482;5.702;2023-11-21T14:33:42;40.30;;;19.27;;
76786;SDS011;65739;51.482;5.702;2023-11-21T14:36:08;46.25;;;18.60;;
76786;SDS011;65739;51.482;5.702;2023-11-21T14:38:35;36.08;;;17.67;;
76786;SDS011;65739;51.482;5.702;2023-11-21T14:41:02;40.28;;;18.30;;
76786;SDS011;65739;51.482;5.702;2023-11-21T14:43:29;42.92;;;19.20;;
76786;SDS011;65739;51.482;5.702;2023-11-21T14:45:59;42.53;;;18.42;;
76786;SDS011;65739;51.482;5.702;2023-11-21T14:48:24;38.78;;;17.40;;